Terminal Aerodrome Forecast
Issued by NWS Wichita, KS

Home | Current Version | Previous Version | Text Only | Print | Product List | Glossary On
Versions: 1 2 3 4 5 6 7 8 9 10 11 12 13 14 15 16 17 18 19 20
000
FTUS43 KICT 250522
TAFICT
TAF
KICT 250522Z 2506/2606 20014G23KT P6SM SCT040 BKN100
      TEMPO 2506/2507 5SM -TSRA BKN025CB
     FM250900 25013KT P6SM SCT020 BKN035
     FM252100 31011KT P6SM SCT040 BKN100
     FM260100 04014KT P6SM SCT050=

USA.gov is the U.S. government's official web portal to all federal, state and local government web resources and services.